Time;durP1;ratioP1;P1;durP2;ratioP2;P2;SDS_P1;SDS_P2;PMS_P1;PMS_P2;Temp;Humidity;BMP_temperature;BMP_pressure;BME280_temperature;BME280_humidity;BME280_pressure;Samples;Min_cycle;Max_cycle;Signal;HPM_P1;HPM_P2
2023/01/27 00:02:20;;;;;;;;;;;;;;;;;;5015859;28;6686;-71
2023/01/27 00:04:45;;;;;;;;;;;;;;;;;;5016873;28;7580;-72
2023/01/27 00:07:11;;;;;;;;;;;;;;;;;;5016822;28;7204;-72
2023/01/27 00:09:37;;;;;;;;;;;;;;;;;;5016526;28;6992;-71
2023/01/27 00:14:46;;;;;;;;;;;;;;;;;;5016800;28;6793;-72
2023/01/27 00:17:22;;;;;;;;;;;;;;;;;;5016552;28;7314;-72
2023/01/27 00:19:48;;;;;;;;;;;;;;;;;;5016559;28;7157;-72
2023/01/27 00:25:13;;;;;;;;;;;;;;;;;;5016462;28;7054;-72
2023/01/27 00:28:04;;;;;;;;;;;;;;;;;;5016252;28;7051;-72
2023/01/27 00:30:30;;;;;;;;;;;;;;;;;;5015992;28;6993;-72
2023/01/27 00:35:41;;;;;;;;;;;;;;;;;;5016481;28;6793;-72
2023/01/27 00:38:15;;;;;;;;;;;;;;;;;;5015717;28;7152;-72
2023/01/27 00:41:14;;;;;;;;;;;;;;;;;;5016083;28;7097;-72
2023/01/27 00:43:26;;;;;;;;;;;;;;;;;;5015402;28;7039;-72
2023/01/27 00:45:51;;;;;;;;;;;;;;;;;;5015913;28;7124;-72
2023/01/27 00:48:19;;;;;;;;;;;;;;;;;;5015935;28;7037;-72
2023/01/27 00:50:44;;;;;;;;;;;;;;;;;;5015823;28;7176;-72
2023/01/27 00:53:36;;;;;;;;;;;;;;;;;;5014031;28;6980;-72
2023/01/27 00:56:02;;;;;;;;;;;;;;;;;;5015732;28;7407;-72
2023/01/27 01:01:30;;;;;;;;;;;;;;;;;;5015331;28;6682;-71
2023/01/27 01:03:57;;;;;;;;;;;;;;;;;;5016368;28;7177;-72
2023/01/27 01:06:23;;;;;;;;;;;;;;;;;;5015228;28;6990;-72
2023/01/27 01:08:52;;;;;;;;;;;;;;;;;;5015508;28;6993;-72
2023/01/27 01:11:41;;;;;;;;;;;;;;;;;;5015255;28;7342;-72
2023/01/27 01:14:07;;;;;;;;;;;;;;;;;;5015522;28;6976;-72
2023/01/27 01:19:35;;;;;;;;;;;;;;;;;;5015133;28;6988;-71
2023/01/27 01:22:03;;;;;;;;;;;;;;;;;;5015152;28;7118;-72
2023/01/27 01:24:28;;;;;;;;;;;;;;;;;;5015043;28;7022;-71
2023/01/27 01:26:54;;;;;;;;;;;;;;;;;;5015157;28;6967;-72
2023/01/27 01:29:19;;;;;;;;;;;;;;;;;;5016324;28;7661;-72
2023/01/27 01:34:48;;;;;;;;;;;;;;;;;;5014794;28;6932;-72
2023/01/27 01:40:17;;;;;;;;;;;;;;;;;;5014744;28;6930;-71
2023/01/27 01:46:08;;;;;;;;;;;;;;;;;;5014779;28;6678;-72
2023/01/27 01:48:55;;;;;;;;;;;;;;;;;;5015573;28;9297;-71
2023/01/27 01:51:20;;;;;;;;;;;;;;;;;;5014789;28;6944;-72
2023/01/27 01:54:04;;;;;;;;;;;;;;;;;;5013472;28;7178;-72
2023/01/27 01:56:35;;;;;;;;;;;;;;;;;;5014732;28;7429;-71
2023/01/27 01:59:11;;;;;;;;;;;;;;;;;;5015094;28;7245;-72
2023/01/27 02:01:37;;;;;;;;;;;;;;;;;;5014445;28;6941;-72
2023/01/27 02:04:07;;;;;;;;;;;;;;;;;;5014761;28;6976;-71
2023/01/27 02:06:39;;;;;;;;;;;;;;;;;;5014768;28;7374;-72
2023/01/27 02:09:05;;;;;;;;;;;;;;;;;;5015860;28;6951;-72
2023/01/27 02:11:31;;;;;;;;;;;;;;;;;;5015355;28;7344;-71
2023/01/27 02:13:59;;;;;;;;;;;;;;;;;;5015258;28;7135;-72
2023/01/27 02:16:25;;;;;;;;;;;;;;;;;;5014775;28;7417;-72
2023/01/27 02:18:51;;;;;;;;;;;;;;;;;;5014709;28;6998;-72
2023/01/27 02:21:17;;;;;;;;;;;;;;;;;;5014529;28;7346;-71
2023/01/27 02:23:49;;;;;;;;;;;;;;;;;;5014571;28;6952;-71
2023/01/27 02:29:27;;;;;;;;;;;;;;;;;;5018226;28;7059;-71
2023/01/27 02:31:53;;;;;;;;;;;;;;;;;;5018430;28;7030;-71
2023/01/27 02:34:23;;;;;;;;;;;;;;;;;;5018440;28;7186;-71
2023/01/27 02:39:42;;;;;;;;;;;;;;;;;;5018612;28;6963;-71
2023/01/27 02:42:13;;;;;;;;;;;;;;;;;;5018310;28;7079;-72
2023/01/27 02:44:38;;;;;;;;;;;;;;;;;;5018198;28;7226;-71
2023/01/27 02:47:04;;;;;;;;;;;;;;;;;;5018708;28;7116;-72
2023/01/27 02:49:30;;;;;;;;;;;;;;;;;;5018153;28;7087;-72
2023/01/27 02:52:14;;;;;;;;;;;;;;;;;;5018898;28;6949;-71
2023/01/27 02:54:48;;;;;;;;;;;;;;;;;;5017901;28;7135;-72
2023/01/27 02:57:13;;;;;;;;;;;;;;;;;;5017915;28;6982;-72
2023/01/27 02:59:40;;;;;;;;;;;;;;;;;;5017729;28;7146;-72
2023/01/27 03:02:06;;;;;;;;;;;;;;;;;;5017878;28;7190;-72
2023/01/27 03:04:31;;;;;;;;;;;;;;;;;;5017714;28;7098;-72
2023/01/27 03:06:57;;;;;;;;;;;;;;;;;;5017861;28;7113;-71
2023/01/27 03:09:23;;;;;;;;;;;;;;;;;;5017698;28;7106;-72
2023/01/27 03:20:40;;;;;;;;;;;;;;;;;;5017386;28;6926;-72
2023/01/27 03:23:06;;;;;;;;;;;;;;;;;;5017221;28;7014;-72
2023/01/27 03:32:14;;;;;;;;;;;;;;;;;;5017201;28;6706;-72
2023/01/27 03:34:40;;;;;;;;;;;;;;;;;;5017369;28;7401;-72
2023/01/27 03:46:15;;;;;;;;;;;;;;;;;;5017171;28;7394;-72
2023/01/27 03:48:40;;;;;;;;;;;;;;;;;;5016804;28;7189;-72
2023/01/27 03:51:15;;;;;;;;;;;;;;;;;;5017290;28;7242;-72
2023/01/27 03:53:40;;;;;;;;;;;;;;;;;;5016914;28;7609;-72
2023/01/27 03:56:06;;;;;;;;;;;;;;;;;;5007302;28;6958;-72
2023/01/27 04:01:35;;;;;;;;;;;;;;;;;;5016823;28;6945;-72
2023/01/27 04:07:11;;;;;;;;;;;;;;;;;;5016824;28;6987;-72
2023/01/27 04:09:36;;;;;;;;;;;;;;;;;;5016601;28;7161;-72
2023/01/27 04:15:19;;;;;;;;;;;;;;;;;;5016243;28;6689;-72
2023/01/27 04:17:44;;;;;;;;;;;;;;;;;;5016637;28;7209;-72
2023/01/27 04:20:32;;;;;;;;;;;;;;;;;;5016253;28;6983;-72
2023/01/27 04:22:57;;;;;;;;;;;;;;;;;;5016425;28;7034;-72
2023/01/27 04:34:38;;;;;;;;;;;;;;;;;;5015944;28;6687;-72
2023/01/27 04:37:04;;;;;;;;;;;;;;;;;;5016210;28;7165;-72
2023/01/27 04:39:30;;;;;;;;;;;;;;;;;;5016018;28;7192;-72
2023/01/27 04:41:56;;;;;;;;;;;;;;;;;;5016011;28;7452;-72
2023/01/27 04:53:37;;;;;;;;;;;;;;;;;;5015825;28;6990;-72
2023/01/27 04:56:15;;;;;;;;;;;;;;;;;;5015718;28;7512;-72
2023/01/27 04:58:40;;;;;;;;;;;;;;;;;;5015462;28;6853;-71
2023/01/27 05:01:41;;;;;;;;;;;;;;;;;;5015646;28;6942;-72
2023/01/27 05:04:06;;;;;;;;;;;;;;;;;;5015550;28;7073;-72
2023/01/27 05:09:35;;;;;;;;;;;;;;;;;;5015646;28;6682;-72
2023/01/27 05:12:01;;;;;;;;;;;;;;;;;;5015379;28;7130;-71
2023/01/27 05:14:48;;;;;;;;;;;;;;;;;;5015389;28;7146;-72
2023/01/27 05:17:14;;;;;;;;;;;;;;;;;;5015293;28;7197;-72
2023/01/27 05:19:39;;;;;;;;;;;;;;;;;;5015231;28;7068;-72
2023/01/27 05:22:05;;;;;;;;;;;;;;;;;;5015248;28;7396;-71
2023/01/27 05:24:31;;;;;;;;;;;;;;;;;;5016278;28;7212;-72
2023/01/27 05:27:09;;;;;;;;;;;;;;;;;;5015300;28;7385;-71
2023/01/27 05:29:35;;;;;;;;;;;;;;;;;;5015205;28;7131;-72
2023/01/27 05:35:03;;;;;;;;;;;;;;;;;;5015004;28;6694;-72
2023/01/27 05:37:29;;;;;;;;;;;;;;;;;;5015190;28;7123;-72
2023/01/27 05:40:07;;;;;;;;;;;;;;;;;;5015074;28;7150;-71
2023/01/27 05:42:32;;;;;;;;;;;;;;;;;;5015031;28;7119;-71
2023/01/27 05:44:58;;;;;;;;;;;;;;;;;;5014626;28;7823;-72
2023/01/27 05:47:30;;;;;;;;;;;;;;;;;;5015620;28;7201;-72
2023/01/27 05:49:56;;;;;;;;;;;;;;;;;;5014893;28;7223;-72
2023/01/27 05:52:25;;;;;;;;;;;;;;;;;;5015422;28;7405;-71
2023/01/27 05:54:51;;;;;;;;;;;;;;;;;;5014846;28;7059;-71
2023/01/27 05:57:17;;;;;;;;;;;;;;;;;;5015035;28;7113;-71
2023/01/27 06:05:49;;;;;;;;;;;;;;;;;;5014688;28;6945;-71
2023/01/27 06:08:15;;;;;;;;;;;;;;;;;;5014803;28;6953;-71
2023/01/27 06:13:43;;;;;;;;;;;;;;;;;;5014534;28;6885;-71
2023/01/27 06:16:28;;;;;;;;;;;;;;;;;;5014774;28;7284;-71
2023/01/27 06:18:54;;;;;;;;;;;;;;;;;;5014761;28;7039;-71
2023/01/27 06:21:36;;;;;;;;;;;;;;;;;;5014646;28;7024;-71
2023/01/27 06:24:03;;;;;;;;;;;;;;;;;;5014565;28;7191;-71
2023/01/27 06:29:26;;;;;;;;;;;;;;;;;;5015450;28;7036;-71
2023/01/27 06:34:54;;;;;;;;;;;;;;;;;;5014358;28;6685;-78
2023/01/27 06:37:19;;;;;;;;;;;;;;;;;;5014445;28;7258;-71
2023/01/27 06:40:00;;;;;;;;;;;;;;;;;;5014616;28;7134;-71
2023/01/27 06:42:25;;;;;;;;;;;;;;;;;;5014283;28;7065;-71
2023/01/27 06:44:54;;;;;;;;;;;;;;;;;;5014372;28;7528;-71
2023/01/27 06:47:20;;;;;;;;;;;;;;;;;;5009957;28;8477;-70
2023/01/27 06:49:50;;;;;;;;;;;;;;;;;;5011451;28;7087;-71
2023/01/27 06:52:21;;;;;;;;;;;;;;;;;;5012050;28;7044;-71
2023/01/27 06:54:47;;;;;;;;;;;;;;;;;;5003691;28;7053;-71
2023/01/27 06:57:13;;;;;;;;;;;;;;;;;;5005999;28;7106;-71
2023/01/27 06:59:39;;;;;;;;;;;;;;;;;;5014269;28;7127;-71
2023/01/27 07:08:11;;;;;;;;;;;;;;;;;;5013892;28;7002;-70
2023/01/27 07:10:49;;;;;;;;;;;;;;;;;;5014856;28;7141;-73
2023/01/27 07:13:15;;;;;;;;;;;;;;;;;;5017678;28;7339;-71
2023/01/27 07:15:53;;;;;;;;;;;;;;;;;;5017848;28;6929;-72
2023/01/27 07:23:25;;;;;;;;;;;;;;;;;;5035362;28;7325;-72
2023/01/27 07:25:50;;;;;;;;;;;;;;;;;;5037277;28;7122;-72
2023/01/27 07:28:15;;;;;;;;;;;;;;;;;;5037207;28;7056;-72
2023/01/27 07:31:09;;;;;;;;;;;;;;;;;;5037335;28;6947;-72
2023/01/27 07:33:36;;;;;;;;;;;;;;;;;;5037075;28;7393;-72
2023/01/27 07:36:01;;;;;;;;;;;;;;;;;;5037059;28;7060;-72
2023/01/27 07:41:30;;;;;;;;;;;;;;;;;;5036674;28;6682;-72
2023/01/27 07:46:58;;;;;;;;;;;;;;;;;;5036835;28;6988;-71
2023/01/27 07:49:24;;;;;;;;;;;;;;;;;;5036802;28;7075;-72
2023/01/27 07:51:50;;;;;;;;;;;;;;;;;;5036348;28;6912;-72
2023/01/27 07:54:19;;;;;;;;;;;;;;;;;;5036750;28;7078;-72
2023/01/27 07:56:44;;;;;;;;;;;;;;;;;;5036413;28;6925;-72
2023/01/27 07:59:37;;;;;;;;;;;;;;;;;;5036644;28;7008;-72
2023/01/27 08:08:36;;;;;;;;;;;;;;;;;;5036363;28;6925;-72
2023/01/27 08:11:04;;;;;;;;;;;;;;;;;;5036298;28;7091;-72
2023/01/27 08:19:35;;;;;;;;;;;;;;;;;;5036482;28;6686;-72
2023/01/27 08:25:05;;;;;;;;;;;;;;;;;;5036032;28;7032;-72
2023/01/27 08:27:31;;;;;;;;;;;;;;;;;;5036042;28;7236;-72
2023/01/27 08:30:07;;;;;;;;;;;;;;;;;;5036165;28;7410;-72
2023/01/27 08:32:33;;;;;;;;;;;;;;;;;;5035921;28;7166;-72
2023/01/27 08:34:58;;;;;;;;;;;;;;;;;;5035753;28;7439;-72
2023/01/27 08:37:24;;;;;;;;;;;;;;;;;;5035942;28;7280;-72
2023/01/27 08:39:51;;;;;;;;;;;;;;;;;;5035630;28;7039;-72
2023/01/27 08:42:16;;;;;;;;;;;;;;;;;;5035791;28;7305;-72
2023/01/27 08:44:42;;;;;;;;;;;;;;;;;;5017927;28;7172;-72
2023/01/27 08:50:16;;;;;;;;;;;;;;;;;;5035450;28;6685;-72
2023/01/27 08:52:41;;;;;;;;;;;;;;;;;;5035530;28;7195;-72
2023/01/27 08:58:28;;;;;;;;;;;;;;;;;;5035386;28;6953;-72
2023/01/27 09:00:54;;;;;;;;;;;;;;;;;;5035635;28;7138;-72
2023/01/27 09:03:19;;;;;;;;;;;;;;;;;;5035335;28;7067;-72
2023/01/27 09:05:45;;;;;;;;;;;;;;;;;;5035386;28;7017;-72
2023/01/27 09:08:18;;;;;;;;;;;;;;;;;;5035916;28;7162;-72
2023/01/27 09:10:43;;;;;;;;;;;;;;;;;;5035276;28;7187;-72
2023/01/27 09:13:20;;;;;;;;;;;;;;;;;;5035302;28;6911;-72
2023/01/27 09:15:47;;;;;;;;;;;;;;;;;;5035166;28;7180;-72
2023/01/27 09:18:24;;;;;;;;;;;;;;;;;;5035757;28;7040;-72
2023/01/27 09:24:06;;;;;;;;;;;;;;;;;;4976200;28;7501;-68
2023/01/27 09:26:32;;;;;;;;;;;;;;;;;;4976321;28;6982;-68
2023/01/27 09:29:24;;;;;;;;;;;;;;;;;;4976373;28;7386;-69
2023/01/27 09:31:49;;;;;;;;;;;;;;;;;;4975608;28;6945;-68
2023/01/27 09:34:16;;;;;;;;;;;;;;;;;;4975427;28;7105;-68
2023/01/27 09:36:55;;;;;;;;;;;;;;;;;;4975869;28;7096;-68
2023/01/27 09:39:22;;;;;;;;;;;;;;;;;;4976077;28;7119;-68
2023/01/27 09:41:54;;;;;;;;;;;;;;;;;;4976738;28;6939;-68
2023/01/27 09:44:22;;;;;;;;;;;;;;;;;;4975706;28;6949;-68
2023/01/27 09:46:47;;;;;;;;;;;;;;;;;;4975938;28;7101;-68
2023/01/27 09:49:16;;;;;;;;;;;;;;;;;;4976689;28;7172;-68
2023/01/27 09:52:02;;;;;;;;;;;;;;;;;;4975739;28;6938;-69
2023/01/27 09:57:49;;;;;;;;;;;;;;;;;;4976491;28;6980;-68
2023/01/27 10:03:31;;;;;;;;;;;;;;;;;;4975943;28;7039;-68
2023/01/27 10:11:15;;;;;;;;;;;;;;;;;;5033183;28;7357;-72
2023/01/27 10:16:52;;;;;;;;;;;;;;;;;;5190179;23;6920;-72
2023/01/27 10:19:26;;;;;;;;;;;;;;;;;;4994891;28;6974;-71
2023/01/27 10:24:58;;;;;;;;;;;;;;;;;;4994842;28;6702;-72
2023/01/27 10:27:25;;;;;;;;;;;;;;;;;;4995034;28;6966;-72
2023/01/27 10:35:50;;;;;;;;;;;;;;;;;;4995364;28;6994;-72
2023/01/27 10:38:37;;;;;;;;;;;;;;;;;;4995181;28;7184;-72
2023/01/27 10:41:20;;;;;;;;;;;;;;;;;;4996202;28;6993;-73
2023/01/27 10:46:44;;;;;;;;;;;;;;;;;;5017137;28;6797;-72
2023/01/27 10:49:24;;;;;;;;;;;;;;;;;;5001375;28;7454;-72
2023/01/27 10:52:10;;;;;;;;;;;;;;;;;;5018150;28;7066;-72
2023/01/27 10:54:49;;;;;;;;;;;;;;;;;;5017919;28;6960;-72
2023/01/27 10:57:28;;;;;;;;;;;;;;;;;;5018966;28;6916;-72
2023/01/27 11:00:13;;;;;;;;;;;;;;;;;;5017589;28;8398;-72
2023/01/27 11:02:46;;;;;;;;;;;;;;;;;;5017988;28;6941;-72
2023/01/27 11:05:26;;;;;;;;;;;;;;;;;;5017617;28;7031;-72
2023/01/27 11:07:58;;;;;;;;;;;;;;;;;;5017942;28;6938;-72
2023/01/27 11:10:33;;;;;;;;;;;;;;;;;;5017335;28;7466;-72
2023/01/27 11:13:02;;;;;;;;;;;;;;;;;;4999987;28;6969;-72
2023/01/27 11:18:24;;;;;;;;;;;;;;;;;;5018091;28;6758;-72
2023/01/27 11:20:54;;;;;;;;;;;;;;;;;;5017567;28;7029;-72
2023/01/27 11:23:41;;;;;;;;;;;;;;;;;;5018450;28;7262;-72
2023/01/27 11:29:34;;;;;;;;;;;;;;;;;;5017346;28;7041;-72
2023/01/27 11:32:33;;;;;;;;;;;;;;;;;;5017344;28;6947;-71
2023/01/27 11:35:05;;;;;;;;;;;;;;;;;;5017315;28;8512;-72
2023/01/27 11:40:37;;;;;;;;;;;;;;;;;;5016984;28;6927;-72
2023/01/27 11:43:03;;;;;;;;;;;;;;;;;;5017176;28;6908;-72
2023/01/27 11:45:34;;;;;;;;;;;;;;;;;;5017068;28;7091;-72
2023/01/27 11:48:22;;;;;;;;;;;;;;;;;;4999505;28;7283;-72
2023/01/27 11:50:47;;;;;;;;;;;;;;;;;;5017107;28;7167;-72
2023/01/27 11:53:40;;;;;;;;;;;;;;;;;;5017055;28;6917;-72
2023/01/27 11:59:05;;;;;;;;;;;;;;;;;;5016713;28;6789;-72
2023/01/27 12:01:57;;;;;;;;;;;;;;;;;;5016852;28;7245;-72
2023/01/27 12:07:36;;;;;;;;;;;;;;;;;;5016966;28;6769;-72
2023/01/27 12:10:02;;;;;;;;;;;;;;;;;;5016884;28;7178;-72
2023/01/27 12:15:31;;;;;;;;;;;;;;;;;;5015013;28;7005;-72
2023/01/27 12:18:00;;;;;;;;;;;;;;;;;;5016696;28;7108;-72
2023/01/27 12:20:26;;;;;;;;;;;;;;;;;;5016587;28;7401;-72
2023/01/27 12:22:58;;;;;;;;;;;;;;;;;;5016234;28;7137;-72
2023/01/27 12:25:28;;;;;;;;;;;;;;;;;;5016117;28;7180;-72
2023/01/27 12:31:03;;;;;;;;;;;;;;;;;;5016085;28;6890;-72
2023/01/27 12:33:46;;;;;;;;;;;;;;;;;;5016248;28;7356;-72
2023/01/27 12:36:12;;;;;;;;;;;;;;;;;;5016445;28;6924;-72
2023/01/27 12:38:43;;;;;;;;;;;;;;;;;;5016265;28;7388;-72
2023/01/27 12:44:28;;;;;;;;;;;;;;;;;;5015883;28;6739;-72
2023/01/27 12:50:15;;;;;;;;;;;;;;;;;;5015795;28;6913;-72
2023/01/27 12:53:01;;;;;;;;;;;;;;;;;;5015967;28;7143;-72
2023/01/27 12:55:27;;;;;;;;;;;;;;;;;;5015851;28;7321;-71
2023/01/27 13:00:58;;;;;;;;;;;;;;;;;;5015581;28;6918;-72
2023/01/27 13:06:38;;;;;;;;;;;;;;;;;;5015431;28;6681;-72
2023/01/27 13:19:40;;;;;;;;;;;;;;;;;;4994416;28;7316;-72
2023/01/27 13:22:18;;;;;;;;;;;;;;;;;;4996100;28;7211;-72
2023/01/27 13:30:53;;;;;;;;;;;;;;;;;;4995546;28;6926;-72
2023/01/27 13:39:27;;;;;;;;;;;;;;;;;;5015257;28;6925;-70
2023/01/27 13:45:10;;;;;;;;;;;;;;;;;;4990066;28;6770;-71
2023/01/27 13:47:56;;;;;;;;;;;;;;;;;;4992381;28;8724;-70
2023/01/27 13:53:40;;;;;;;;;;;;;;;;;;4998850;28;6774;-70
2023/01/27 13:59:08;;;;;;;;;;;;;;;;;;5013629;28;6941;-70
2023/01/27 14:01:42;;;;;;;;;;;;;;;;;;5013898;28;6969;-69
2023/01/27 14:31:37;;;;;;;;;;;;;;;;;;5018827;28;6943;-70
2023/01/27 14:34:08;;;;;;;;;;;;;;;;;;5018026;28;7057;-70
2023/01/27 14:36:50;;;;;;;;;;;;;;;;;;5018428;28;7346;-69
2023/01/27 14:39:23;;;;;;;;;;;;;;;;;;5018447;28;7276;-70
2023/01/27 14:42:24;;;;;;;;;;;;;;;;;;5018811;28;7223;-69
2023/01/27 14:44:55;;;;;;;;;;;;;;;;;;5018167;28;7167;-70
2023/01/27 14:50:23;;;;;;;;;;;;;;;;;;5018043;28;6930;-70
2023/01/27 14:53:18;;;;;;;;;;;;;;;;;;5017942;28;7139;-69
2023/01/27 14:56:02;;;;;;;;;;;;;;;;;;5018079;28;7073;-69
2023/01/27 15:04:55;;;;;;;;;;;;;;;;;;5017816;28;6685;-70
2023/01/27 15:13:47;;;;;;;;;;;;;;;;;;5017460;28;6682;-70
2023/01/27 15:16:15;;;;;;;;;;;;;;;;;;5017817;28;7423;-70
2023/01/27 15:18:55;;;;;;;;;;;;;;;;;;5017708;28;7418;-70
2023/01/27 15:21:39;;;;;;;;;;;;;;;;;;5017670;28;6948;-70
2023/01/27 15:24:10;;;;;;;;;;;;;;;;;;5017581;28;7125;-69
2023/01/27 15:26:38;;;;;;;;;;;;;;;;;;5017380;28;7845;-70
2023/01/27 15:32:16;;;;;;;;;;;;;;;;;;5014686;28;6916;-69
2023/01/27 15:34:43;;;;;;;;;;;;;;;;;;5017203;28;7936;-70
2023/01/27 15:46:22;;;;;;;;;;;;;;;;;;5018077;28;6969;-70
2023/01/27 15:49:07;;;;;;;;;;;;;;;;;;5017221;28;7168;-70
2023/01/27 15:51:36;;;;;;;;;;;;;;;;;;5016906;28;7168;-69
2023/01/27 15:54:02;;;;;;;;;;;;;;;;;;5017134;28;7147;-70
2023/01/27 15:59:44;;;;;;;;;;;;;;;;;;5016959;28;6979;-69
2023/01/27 16:02:19;;;;;;;;;;;;;;;;;;5016824;28;7123;-69
2023/01/27 16:05:03;;;;;;;;;;;;;;;;;;5016684;28;7050;-70
2023/01/27 16:07:32;;;;;;;;;;;;;;;;;;5016952;28;7002;-71
2023/01/27 16:10:01;;;;;;;;;;;;;;;;;;5017017;28;6925;-69
2023/01/27 16:12:29;;;;;;;;;;;;;;;;;;5016423;28;7209;-70
2023/01/27 16:17:57;;;;;;;;;;;;;;;;;;5016959;28;6959;-70
2023/01/27 16:20:27;;;;;;;;;;;;;;;;;;5016543;28;7135;-70
2023/01/27 16:23:01;;;;;;;;;;;;;;;;;;5016734;28;7147;-71
2023/01/27 16:25:38;;;;;;;;;;;;;;;;;;5016589;28;7420;-70
2023/01/27 16:28:41;;;;;;;;;;;;;;;;;;5016535;28;7070;-69
2023/01/27 16:34:22;;;;;;;;;;;;;;;;;;5012023;28;6740;-69
2023/01/27 16:37:00;;;;;;;;;;;;;;;;;;5016198;28;7159;-71
2023/01/27 16:39:36;;;;;;;;;;;;;;;;;;4998527;28;8577;-70
2023/01/27 16:42:02;;;;;;;;;;;;;;;;;;5016175;28;6960;-70
2023/01/27 16:48:01;;;;;;;;;;;;;;;;;;5016086;28;6941;-70
2023/01/27 16:53:31;;;;;;;;;;;;;;;;;;5015908;28;7024;-71
2023/01/27 16:59:06;;;;;;;;;;;;;;;;;;5015948;28;6786;-71
2023/01/27 17:04:26;;;;;;;;;;;;;;;;;;5015412;28;6927;-70
2023/01/27 17:07:15;;;;;;;;;;;;;;;;;;5015460;28;7034;-71
2023/01/27 17:09:48;;;;;;;;;;;;;;;;;;5015177;28;7406;-69
2023/01/27 17:15:19;;;;;;;;;;;;;;;;;;5015362;28;6937;-70
2023/01/27 17:17:57;;;;;;;;;;;;;;;;;;5015642;28;6948;-70
2023/01/27 17:20:26;;;;;;;;;;;;;;;;;;5015438;28;7071;-71
2023/01/27 17:22:53;;;;;;;;;;;;;;;;;;5015538;28;7147;-71
2023/01/27 17:25:25;;;;;;;;;;;;;;;;;;5015324;28;7474;-70
2023/01/27 17:31:06;;;;;;;;;;;;;;;;;;5015130;28;6928;-70
2023/01/27 17:33:33;;;;;;;;;;;;;;;;;;5006501;28;7396;-71
2023/01/27 17:36:10;;;;;;;;;;;;;;;;;;4997453;28;8497;-70
2023/01/27 17:38:46;;;;;;;;;;;;;;;;;;5015090;28;7110;-71
2023/01/27 17:41:26;;;;;;;;;;;;;;;;;;5015128;28;7416;-71
2023/01/27 17:43:54;;;;;;;;;;;;;;;;;;5015020;28;6989;-71
2023/01/27 17:46:55;;;;;;;;;;;;;;;;;;5015442;28;7166;-71
2023/01/27 17:49:20;;;;;;;;;;;;;;;;;;5015039;28;8114;-71
2023/01/27 17:51:50;;;;;;;;;;;;;;;;;;5008576;28;6826;-71
2023/01/27 17:54:40;;;;;;;;;;;;;;;;;;4986275;28;7181;-71
2023/01/27 17:57:21;;;;;;;;;;;;;;;;;;4994973;28;7975;-71
2023/01/27 17:59:52;;;;;;;;;;;;;;;;;;4995350;28;7487;-71
2023/01/27 18:02:23;;;;;;;;;;;;;;;;;;4995472;28;7030;-71
2023/01/27 18:05:05;;;;;;;;;;;;;;;;;;4995883;28;7656;-70
2023/01/27 18:07:31;;;;;;;;;;;;;;;;;;4995792;28;6915;-71
2023/01/27 18:09:58;;;;;;;;;;;;;;;;;;4995489;28;6852;-71
2023/01/27 18:12:29;;;;;;;;;;;;;;;;;;4995359;28;7173;-71
2023/01/27 18:17:58;;;;;;;;;;;;;;;;;;4995007;28;6933;-71
2023/01/27 18:20:25;;;;;;;;;;;;;;;;;;4995046;28;7159;-71
2023/01/27 18:23:00;;;;;;;;;;;;;;;;;;4995080;28;6974;-71
2023/01/27 18:25:27;;;;;;;;;;;;;;;;;;4995061;28;7120;-71
2023/01/27 18:27:54;;;;;;;;;;;;;;;;;;4995036;28;7224;-70
2023/01/27 18:33:23;;;;;;;;;;;;;;;;;;4994712;28;6678;-71
2023/01/27 18:35:56;;;;;;;;;;;;;;;;;;4993980;28;7369;-71
2023/01/27 18:38:26;;;;;;;;;;;;;;;;;;4994758;28;7055;-69
2023/01/27 18:40:52;;;;;;;;;;;;;;;;;;4994939;28;7221;-71
2023/01/27 18:43:17;;;;;;;;;;;;;;;;;;4994813;28;7099;-71
2023/01/27 18:45:43;;;;;;;;;;;;;;;;;;4994813;28;6805;-71
2023/01/27 18:48:32;;;;;;;;;;;;;;;;;;4994496;28;7156;-71
2023/01/27 18:50:57;;;;;;;;;;;;;;;;;;4994569;28;7184;-71
2023/01/27 18:53:23;;;;;;;;;;;;;;;;;;4994537;28;7239;-71
2023/01/27 19:01:55;;;;;;;;;;;;;;;;;;4994682;28;6674;-71
2023/01/27 19:04:22;;;;;;;;;;;;;;;;;;4994726;28;7166;-71
2023/01/27 19:07:14;;;;;;;;;;;;;;;;;;4995832;28;7147;-71
2023/01/27 19:09:41;;;;;;;;;;;;;;;;;;4998227;28;7790;-71
2023/01/27 19:14:58;;;;;;;;;;;;;;;;;;4998772;28;6975;-71
2023/01/27 19:17:51;;;;;;;;;;;;;;;;;;4998192;28;7041;-71
2023/01/27 19:20:19;;;;;;;;;;;;;;;;;;4998290;28;7422;-71
2023/01/27 19:23:02;;;;;;;;;;;;;;;;;;4997698;28;7290;-71
2023/01/27 19:25:29;;;;;;;;;;;;;;;;;;4998074;28;7239;-71
2023/01/27 19:28:07;;;;;;;;;;;;;;;;;;4980392;28;8670;-71
2023/01/27 19:30:37;;;;;;;;;;;;;;;;;;4997790;28;7008;-71
2023/01/27 19:33:33;;;;;;;;;;;;;;;;;;4997784;28;7330;-70
2023/01/27 19:36:02;;;;;;;;;;;;;;;;;;4997434;28;6967;-71
2023/01/27 19:38:28;;;;;;;;;;;;;;;;;;4997758;28;7081;-71
2023/01/27 19:40:54;;;;;;;;;;;;;;;;;;4998088;28;7127;-70
2023/01/27 19:43:38;;;;;;;;;;;;;;;;;;4997367;28;7205;-70
2023/01/27 19:46:28;;;;;;;;;;;;;;;;;;4997704;28;7207;-71
2023/01/27 19:48:54;;;;;;;;;;;;;;;;;;4997507;28;7506;-70
2023/01/27 19:51:20;;;;;;;;;;;;;;;;;;4997708;28;7178;-70
2023/01/27 19:54:08;;;;;;;;;;;;;;;;;;4997488;28;7047;-69
2023/01/27 19:56:35;;;;;;;;;;;;;;;;;;4997444;28;7260;-70
2023/01/27 19:59:01;;;;;;;;;;;;;;;;;;4997275;28;7047;-70
2023/01/27 20:01:38;;;;;;;;;;;;;;;;;;4998115;28;7109;-70
2023/01/27 20:04:04;;;;;;;;;;;;;;;;;;4997859;28;7154;-70
2023/01/27 20:06:30;;;;;;;;;;;;;;;;;;4997270;28;7412;-71
2023/01/27 20:09:16;;;;;;;;;;;;;;;;;;4998226;28;7205;-71
2023/01/27 20:11:42;;;;;;;;;;;;;;;;;;4997533;28;7125;-71
2023/01/27 20:14:13;;;;;;;;;;;;;;;;;;4997127;28;7391;-71
2023/01/27 20:19:37;;;;;;;;;;;;;;;;;;4997121;28;6952;-72
2023/01/27 20:22:05;;;;;;;;;;;;;;;;;;4996827;28;7147;-71
2023/01/27 20:24:31;;;;;;;;;;;;;;;;;;4996943;28;7153;-71
2023/01/27 20:26:57;;;;;;;;;;;;;;;;;;4996905;28;7169;-71
2023/01/27 20:29:23;;;;;;;;;;;;;;;;;;4996870;28;7063;-71
2023/01/27 20:31:48;;;;;;;;;;;;;;;;;;4996506;28;7396;-71
2023/01/27 20:37:29;;;;;;;;;;;;;;;;;;4991621;28;6677;-71
2023/01/27 20:40:12;;;;;;;;;;;;;;;;;;5013197;28;6923;-72
2023/01/27 20:42:37;;;;;;;;;;;;;;;;;;5016240;28;6946;-72
2023/01/27 20:45:03;;;;;;;;;;;;;;;;;;5008641;28;6926;-72
2023/01/27 20:47:29;;;;;;;;;;;;;;;;;;4996598;28;7003;-71
2023/01/27 20:49:54;;;;;;;;;;;;;;;;;;4996460;28;7392;-71
2023/01/27 20:52:27;;;;;;;;;;;;;;;;;;4995920;28;6962;-71
2023/01/27 20:54:53;;;;;;;;;;;;;;;;;;5002290;28;7078;-71
2023/01/27 20:57:20;;;;;;;;;;;;;;;;;;5008542;28;7180;-71
2023/01/27 20:59:47;;;;;;;;;;;;;;;;;;5012782;28;6865;-70
2023/01/27 21:05:11;;;;;;;;;;;;;;;;;;5016057;28;7013;-71
2023/01/27 21:10:59;;;;;;;;;;;;;;;;;;5015391;28;6830;-71
2023/01/27 21:13:24;;;;;;;;;;;;;;;;;;5015120;28;8526;-71
2023/01/27 21:15:50;;;;;;;;;;;;;;;;;;5015109;28;7159;-71
2023/01/27 21:18:46;;;;;;;;;;;;;;;;;;5015246;28;6988;-71
2023/01/27 21:21:23;;;;;;;;;;;;;;;;;;5015362;28;7242;-71
2023/01/27 21:24:11;;;;;;;;;;;;;;;;;;5015314;28;6974;-71
2023/01/27 21:26:36;;;;;;;;;;;;;;;;;;5014902;28;7348;-71
2023/01/27 21:32:05;;;;;;;;;;;;;;;;;;5015023;28;6948;-71
2023/01/27 21:34:31;;;;;;;;;;;;;;;;;;5015271;28;7085;-71
2023/01/27 21:36:56;;;;;;;;;;;;;;;;;;5011676;28;6940;-71
2023/01/27 21:39:22;;;;;;;;;;;;;;;;;;5012920;28;6912;-70
2023/01/27 21:47:08;;;;;;;;;;;;;;;;;;5003459;28;6785;-71
2023/01/27 21:49:59;;;;;;;;;;;;;;;;;;4995353;28;7167;-71
2023/01/27 21:55:27;;;;;;;;;;;;;;;;;;4995125;28;6697;-71
2023/01/27 21:58:00;;;;;;;;;;;;;;;;;;4995395;28;6809;-71
2023/01/27 22:00:28;;;;;;;;;;;;;;;;;;4995447;28;7203;-71
2023/01/27 22:02:55;;;;;;;;;;;;;;;;;;4995249;28;7004;-71
2023/01/27 22:05:40;;;;;;;;;;;;;;;;;;4995611;28;8066;-71
2023/01/27 22:08:05;;;;;;;;;;;;;;;;;;4994947;28;7435;-71
2023/01/27 22:10:31;;;;;;;;;;;;;;;;;;4995558;28;7097;-71
2023/01/27 22:12:59;;;;;;;;;;;;;;;;;;4995049;28;7141;-71
2023/01/27 22:15:29;;;;;;;;;;;;;;;;;;4995115;28;7233;-71
2023/01/27 22:21:00;;;;;;;;;;;;;;;;;;4994961;28;6674;-71
2023/01/27 22:23:38;;;;;;;;;;;;;;;;;;4994738;28;7398;-71
2023/01/27 22:26:05;;;;;;;;;;;;;;;;;;4995044;28;7074;-71
2023/01/27 22:28:31;;;;;;;;;;;;;;;;;;4995168;28;7215;-71
2023/01/27 22:33:59;;;;;;;;;;;;;;;;;;4994835;28;6929;-71
2023/01/27 22:39:27;;;;;;;;;;;;;;;;;;4994995;28;6977;-71
2023/01/27 22:41:53;;;;;;;;;;;;;;;;;;4996336;28;7213;-71
2023/01/27 22:44:34;;;;;;;;;;;;;;;;;;4998771;28;7146;-71
2023/01/27 22:47:13;;;;;;;;;;;;;;;;;;4998418;28;6978;-71
2023/01/27 22:49:39;;;;;;;;;;;;;;;;;;4998761;28;7454;-71
2023/01/27 22:52:38;;;;;;;;;;;;;;;;;;4999088;28;7183;-71
2023/01/27 22:55:05;;;;;;;;;;;;;;;;;;4998728;28;7254;-71
2023/01/27 23:00:33;;;;;;;;;;;;;;;;;;4998641;28;6685;-71
2023/01/27 23:06:16;;;;;;;;;;;;;;;;;;4998218;28;6694;-71
2023/01/27 23:08:41;;;;;;;;;;;;;;;;;;4998493;28;7248;-71
2023/01/27 23:11:27;;;;;;;;;;;;;;;;;;4998281;28;7394;-71
2023/01/27 23:13:53;;;;;;;;;;;;;;;;;;4998353;28;6969;-71
2023/01/27 23:16:29;;;;;;;;;;;;;;;;;;4998208;28;6985;-71
2023/01/27 23:18:55;;;;;;;;;;;;;;;;;;4998328;28;7418;-71
2023/01/27 23:21:21;;;;;;;;;;;;;;;;;;4998103;28;7094;-71
2023/01/27 23:23:48;;;;;;;;;;;;;;;;;;4998624;28;7143;-74
2023/01/27 23:29:35;;;;;;;;;;;;;;;;;;4997859;28;6670;-71
2023/01/27 23:32:09;;;;;;;;;;;;;;;;;;4997999;28;7066;-71
2023/01/27 23:34:35;;;;;;;;;;;;;;;;;;4997830;28;7070;-71
2023/01/27 23:37:00;;;;;;;;;;;;;;;;;;4996740;28;7030;-71
2023/01/27 23:45:31;;;;;;;;;;;;;;;;;;4997482;28;6929;-71
2023/01/27 23:47:58;;;;;;;;;;;;;;;;;;4997636;28;7250;-71
2023/01/27 23:50:23;;;;;;;;;;;;;;;;;;4997539;28;6906;-71
2023/01/27 23:55:56;;;;;;;;;;;;;;;;;;4997267;28;6690;-71
2023/01/27 23:58:24;;;;;;;;;;;;;;;;;;4997527;28;7172;-71
